Time;durP1;ratioP1;P1;durP2;ratioP2;P2;SDS_P1;SDS_P2;PMS_P1;PMS_P2;Temp;Humidity;BMP_temperature;BMP_pressure;BME280_temperature;BME280_humidity;BME280_pressure;Samples;Min_cycle;Max_cycle;Signal;HPM_P1;HPM_P2
2022/09/02 00:01:47;;;;;;;9.95;9.65;;;14.70;99.90;;;;;;5062492;28;20234;-80
2022/09/02 00:04:19;;;;;;;9.50;9.20;;;14.70;99.90;;;;;;5064659;28;20326;-80
2022/09/02 00:09:31;;;;;;;9.60;9.30;;;14.50;99.90;;;;;;5065191;28;20226;-81
2022/09/02 00:12:11;;;;;;;9.80;9.50;;;14.50;99.90;;;;;;5063891;28;20341;-81
2022/09/02 00:14:39;;;;;;;10.10;9.80;;;14.50;99.90;;;;;;5063767;28;20235;-81
2022/09/02 00:17:08;;;;;;;10.27;9.98;;;14.40;99.90;;;;;;5064372;28;20262;-80
2022/09/02 00:19:37;;;;;;;10.70;10.40;;;14.30;99.90;;;;;;5063760;28;20325;-80
2022/09/02 00:22:07;;;;;;;10.63;10.33;;;14.30;99.90;;;;;;5063574;28;20235;-80
2022/09/02 00:24:37;;;;;;;10.30;10.00;;;14.40;99.90;;;;;;5064573;28;20223;-80
2022/09/02 00:29:53;;;;;;;9.90;9.60;;;14.30;99.90;;;;;;5064567;28;20218;-80
2022/09/02 00:32:21;;;;;;;9.90;9.60;;;14.30;99.90;;;;;;5064551;28;20226;-80
2022/09/02 00:34:54;;;;;;;10.00;9.70;;;14.30;99.90;;;;;;5064732;28;20242;-80
2022/09/02 00:37:24;;;;;;;9.93;9.63;;;14.20;99.90;;;;;;5064983;28;20235;-80
2022/09/02 00:39:53;;;;;;;9.83;9.53;;;14.20;99.90;;;;;;5065936;28;20253;-80
2022/09/02 00:42:31;;;;;;;10.10;9.80;;;14.30;99.90;;;;;;5065475;28;20238;-80
2022/09/02 00:45:01;;;;;;;10.00;9.70;;;14.20;99.90;;;;;;5065948;28;20278;-80
2022/09/02 00:47:30;;;;;;;9.90;9.60;;;14.20;99.90;;;;;;5066398;28;20308;-80
2022/09/02 00:49:59;;;;;;;9.75;9.45;;;14.30;99.90;;;;;;5069895;28;20258;-80
2022/09/02 00:52:30;;;;;;;9.70;9.40;;;14.20;99.90;;;;;;5079044;28;20227;-80
2022/09/02 00:55:01;;;;;;;9.80;9.50;;;14.20;99.90;;;;;;5078615;28;20203;-78
2022/09/02 00:57:36;;;;;;;9.97;9.67;;;14.20;99.90;;;;;;5076602;28;20253;-80
2022/09/02 01:00:16;;;;;;;9.90;9.60;;;14.20;99.90;;;;;;5071412;28;20257;-80
2022/09/02 01:02:50;;;;;;;9.77;9.47;;;14.10;99.90;;;;;;5076352;28;20235;-80
2022/09/02 01:05:23;;;;;;;10.00;9.70;;;14.10;99.90;;;;;;5078219;28;20205;-80
2022/09/02 01:07:51;;;;;;;10.20;9.90;;;14.10;99.90;;;;;;5074611;28;20265;-80
2022/09/02 01:10:24;;;;;;;9.90;9.60;;;14.10;99.90;;;;;;5075613;28;21101;-80
2022/09/02 01:13:08;;;;;;;9.70;9.40;;;14.10;99.90;;;;;;5078613;28;20242;-80
2022/09/02 01:15:42;;;;;;;10.00;9.70;;;14.00;99.90;;;;;;5079047;28;20241;-80
2022/09/02 01:18:16;;;;;;;9.90;9.60;;;14.00;99.90;;;;;;5080222;28;20219;-80
2022/09/02 01:20:46;;;;;;;9.87;9.57;;;13.90;99.90;;;;;;5079598;28;20225;-81
2022/09/02 01:23:27;;;;;;;9.90;9.60;;;13.90;99.90;;;;;;5079481;28;20226;-80
2022/09/02 01:25:54;;;;;;;9.60;9.30;;;13.80;99.90;;;;;;5079568;28;20215;-80
2022/09/02 01:28:22;;;;;;;9.70;9.40;;;13.80;99.90;;;;;;5079956;28;20218;-80
2022/09/02 01:30:54;;;;;;;9.50;9.20;;;13.70;99.90;;;;;;5079438;28;20254;-80
2022/09/02 01:33:24;;;;;;;9.50;9.20;;;13.70;99.90;;;;;;5079899;28;20251;-80
2022/09/02 01:35:52;;;;;;;9.50;9.20;;;13.60;99.90;;;;;;5079270;28;20234;-80
2022/09/02 01:38:22;;;;;;;9.60;9.30;;;13.60;99.90;;;;;;5080100;28;20230;-80
2022/09/02 01:40:51;;;;;;;9.90;9.60;;;13.60;99.90;;;;;;5079553;28;20211;-80
2022/09/02 01:43:28;;;;;;;10.00;9.70;;;13.60;99.90;;;;;;5079728;28;20223;-80
2022/09/02 01:45:58;;;;;;;9.87;9.57;;;13.50;99.90;;;;;;5079274;28;20207;-80
2022/09/02 01:48:27;;;;;;;9.90;9.60;;;13.50;99.90;;;;;;5079874;28;20258;-80
2022/09/02 01:50:58;;;;;;;9.70;9.40;;;13.40;99.90;;;;;;5079976;28;20214;-79
2022/09/02 01:53:34;;;;;;;9.80;9.50;;;13.40;99.90;;;;;;5079727;28;20218;-80
2022/09/02 01:56:03;;;;;;;9.60;9.30;;;13.40;99.90;;;;;;5078611;28;20218;-80
2022/09/02 01:58:33;;;;;;;9.90;9.60;;;13.30;99.90;;;;;;5079847;28;20270;-80
2022/09/02 02:01:02;;;;;;;9.63;9.33;;;13.30;99.90;;;;;;5079547;28;20282;-80
2022/09/02 02:03:32;;;;;;;9.80;9.50;;;13.30;99.90;;;;;;5079306;28;20246;-80
2022/09/02 02:06:01;;;;;;;9.70;9.40;;;13.20;99.90;;;;;;5078591;28;20228;-80
2022/09/02 02:08:39;;;;;;;9.60;9.30;;;13.10;99.90;;;;;;5079338;28;20338;-81
2022/09/02 02:11:09;;;;;;;9.67;9.37;;;13.10;99.90;;;;;;5078760;28;20227;-80
2022/09/02 02:13:38;;;;;;;9.60;9.30;;;13.00;99.90;;;;;;5079359;28;20275;-80
2022/09/02 02:16:08;;;;;;;9.53;9.23;;;12.90;99.90;;;;;;5068606;28;20319;-80
2022/09/02 02:18:37;;;;;;;9.50;9.20;;;12.90;99.90;;;;;;5060043;28;20236;-80
2022/09/02 02:21:06;;;;;;;9.60;9.30;;;12.90;99.90;;;;;;5065486;28;20298;-80
2022/09/02 02:23:39;;;;;;;9.60;9.30;;;12.90;99.90;;;;;;5069249;28;20258;-80
2022/09/02 02:26:07;;;;;;;9.80;9.50;;;12.90;99.90;;;;;;5062796;28;20226;-80
2022/09/02 02:28:35;;;;;;;9.70;9.40;;;12.80;99.90;;;;;;5063498;28;20238;-81
2022/09/02 02:31:05;;;;;;;9.60;9.30;;;12.80;99.90;;;;;;5063677;28;20231;-80
2022/09/02 02:33:34;;;;;;;9.87;9.57;;;12.70;99.90;;;;;;5063476;28;21110;-80
2022/09/02 02:36:05;;;;;;;9.80;9.50;;;12.60;99.90;;;;;;5067487;28;20253;-80
2022/09/02 02:38:34;;;;;;;9.60;9.30;;;12.70;99.90;;;;;;5068372;28;20240;-81
2022/09/02 02:41:13;;;;;;;9.50;9.20;;;12.60;99.90;;;;;;5065984;28;20285;-80
2022/09/02 02:43:42;;;;;;;9.50;9.20;;;12.60;99.90;;;;;;5065237;28;20242;-80
2022/09/02 02:46:12;;;;;;;9.60;9.30;;;12.60;99.90;;;;;;5064523;28;20223;-81
2022/09/02 02:48:41;;;;;;;9.50;9.20;;;12.60;99.90;;;;;;5064056;28;20265;-80
2022/09/02 02:51:11;;;;;;;9.57;9.27;;;12.50;99.90;;;;;;5064551;28;20229;-80
2022/09/02 02:53:40;;;;;;;9.53;9.23;;;12.50;99.90;;;;;;5064158;28;20325;-80
2022/09/02 02:56:13;;;;;;;10.20;9.90;;;12.40;99.90;;;;;;5062822;28;20286;-80
2022/09/02 02:58:40;;;;;;;10.10;9.80;;;12.40;99.90;;;;;;5063962;28;20231;-79
2022/09/02 03:01:08;;;;;;;10.20;9.90;;;12.40;99.90;;;;;;5062565;28;20235;-80
2022/09/02 03:03:38;;;;;;;9.83;9.53;;;12.30;99.90;;;;;;5062635;28;20286;-81
2022/09/02 03:06:07;;;;;;;9.50;9.20;;;12.30;99.90;;;;;;5062677;28;20266;-80
2022/09/02 03:08:38;;;;;;;9.37;9.07;;;12.30;99.90;;;;;;5063196;28;20227;-81
2022/09/02 03:11:08;;;;;;;9.30;9.00;;;12.30;99.90;;;;;;5063051;28;20327;-80
2022/09/02 03:13:36;;;;;;;9.40;9.10;;;12.20;99.90;;;;;;5062973;28;20322;-80
2022/09/02 03:16:06;;;;;;;9.10;8.80;;;12.30;99.90;;;;;;5063896;28;20227;-80
2022/09/02 03:18:34;;;;;;;9.30;9.00;;;12.20;99.90;;;;;;5063926;28;20227;-80
2022/09/02 03:21:06;;;;;;;9.30;9.00;;;12.20;99.90;;;;;;5063189;28;20330;-82
2022/09/02 03:23:33;;;;;;;9.40;9.10;;;12.20;99.90;;;;;;5063459;28;20294;-80
2022/09/02 03:26:03;;;;;;;8.97;8.70;;;12.20;99.90;;;;;;5063929;28;20230;-80
2022/09/02 03:28:35;;;;;;;9.20;8.90;;;12.20;99.90;;;;;;5064460;28;20285;-81
2022/09/02 03:31:02;;;;;;;9.20;8.90;;;12.20;99.90;;;;;;5064205;28;20285;-80
2022/09/02 03:33:31;;;;;;;8.70;8.50;;;12.20;99.90;;;;;;5062671;28;20283;-80
2022/09/02 03:36:00;;;;;;;8.67;8.47;;;12.20;99.90;;;;;;5062656;28;20215;-80
2022/09/02 03:38:30;;;;;;;8.90;8.70;;;12.20;99.90;;;;;;5062636;28;20231;-80
2022/09/02 03:41:00;;;;;;;8.97;8.73;;;12.20;99.90;;;;;;5062850;28;20262;-80
2022/09/02 03:43:29;;;;;;;8.87;8.67;;;12.20;99.90;;;;;;5062217;28;20242;-80
2022/09/02 03:46:08;;;;;;;9.03;8.80;;;12.10;99.90;;;;;;5062043;28;20234;-80
2022/09/02 03:48:36;;;;;;;9.10;8.80;;;12.10;99.90;;;;;;5062331;28;20230;-80
2022/09/02 03:51:06;;;;;;;9.10;8.80;;;12.10;99.90;;;;;;5062547;28;20235;-80
2022/09/02 03:53:35;;;;;;;8.90;8.70;;;12.10;99.90;;;;;;5063201;28;20235;-80
2022/09/02 03:56:07;;;;;;;8.60;8.40;;;12.10;99.90;;;;;;5062163;28;20234;-80
2022/09/02 03:58:36;;;;;;;8.50;8.30;;;12.10;99.90;;;;;;5062494;28;20706;-80
2022/09/02 04:01:13;;;;;;;8.60;8.40;;;12.00;99.90;;;;;;5063138;28;20227;-80
2022/09/02 04:03:42;;;;;;;9.10;8.80;;;12.00;99.90;;;;;;5063678;28;20238;-80
2022/09/02 04:06:11;;;;;;;8.70;8.50;;;12.00;99.90;;;;;;5062190;28;20235;-80
2022/09/02 04:08:42;;;;;;;9.00;8.70;;;12.00;99.90;;;;;;5061838;28;20717;-80
2022/09/02 04:11:15;;;;;;;9.00;8.70;;;11.90;99.90;;;;;;5061709;28;20226;-80
2022/09/02 04:13:42;;;;;;;8.60;8.40;;;11.90;99.90;;;;;;5062107;28;20269;-80
2022/09/02 04:16:19;;;;;;;9.53;9.23;;;11.90;99.90;;;;;;5061005;28;20242;-81
2022/09/02 04:18:48;;;;;;;9.40;9.10;;;11.90;99.90;;;;;;5063934;28;20234;-82
2022/09/02 04:21:18;;;;;;;9.60;9.30;;;11.90;99.90;;;;;;5068768;28;20289;-80
2022/09/02 04:23:46;;;;;;;9.90;9.60;;;11.90;99.90;;;;;;5067059;28;20246;-81
2022/09/02 04:26:17;;;;;;;9.50;9.20;;;11.90;99.90;;;;;;5064584;28;20936;-80
2022/09/02 04:28:45;;;;;;;9.70;9.40;;;11.90;99.90;;;;;;5064506;28;20234;-80
2022/09/02 04:31:24;;;;;;;9.50;9.20;;;11.80;99.90;;;;;;5070074;28;20246;-80
2022/09/02 04:33:53;;;;;;;9.30;9.00;;;11.80;99.90;;;;;;5072389;28;20286;-80
2022/09/02 04:36:24;;;;;;;9.20;8.90;;;11.80;99.90;;;;;;5068541;28;20269;-80
2022/09/02 04:38:53;;;;;;;8.80;8.60;;;11.80;99.90;;;;;;5069518;28;20231;-81
2022/09/02 04:41:24;;;;;;;9.20;8.90;;;11.70;99.90;;;;;;5079574;28;20238;-80
2022/09/02 04:43:52;;;;;;;8.67;8.47;;;11.80;99.90;;;;;;5078849;28;20235;-80
2022/09/02 04:46:23;;;;;;;9.13;8.83;;;11.70;99.90;;;;;;5069592;28;20238;-80
2022/09/02 04:48:51;;;;;;;8.60;8.40;;;11.80;99.90;;;;;;5065746;28;20250;-80
2022/09/02 04:51:22;;;;;;;8.80;8.60;;;11.80;99.90;;;;;;5065272;28;20246;-80
2022/09/02 04:53:52;;;;;;;8.93;8.73;;;11.70;99.90;;;;;;5065563;28;20313;-80
2022/09/02 04:56:29;;;;;;;9.30;9.00;;;11.80;99.90;;;;;;5067444;28;20230;-81
2022/09/02 04:58:59;;;;;;;9.43;9.13;;;11.80;99.90;;;;;;5065479;28;20261;-80
2022/09/02 05:01:36;;;;;;;9.30;9.00;;;11.80;99.90;;;;;;5063636;28;20254;-80
2022/09/02 05:04:08;;;;;;;9.60;9.30;;;11.80;99.90;;;;;;5063264;28;20240;-80
2022/09/02 05:06:38;;;;;;;9.93;9.63;;;11.80;99.90;;;;;;5062502;28;20309;-80
2022/09/02 05:09:07;;;;;;;9.77;9.47;;;11.80;99.90;;;;;;5062566;28;20230;-80
2022/09/02 05:11:35;;;;;;;9.83;9.53;;;11.90;99.90;;;;;;5062275;28;20242;-80
2022/09/02 05:14:06;;;;;;;9.73;9.43;;;11.90;99.90;;;;;;5062236;28;20239;-80
2022/09/02 05:16:41;;;;;;;9.80;9.50;;;11.90;99.90;;;;;;5061474;28;20226;-80
2022/09/02 05:19:12;;;;;;;9.70;9.40;;;12.00;99.90;;;;;;5061711;28;20307;-80
2022/09/02 05:21:42;;;;;;;10.00;9.70;;;12.10;99.90;;;;;;5061060;28;20302;-80
2022/09/02 05:24:11;;;;;;;10.10;9.80;;;12.10;99.90;;;;;;5110431;22;20230;-84
2022/09/02 05:26:41;;;;;;;10.17;9.87;;;12.20;99.90;;;;;;5090075;28;20241;-84
2022/09/02 05:29:10;;;;;;;9.90;9.60;;;12.20;99.90;;;;;;5089767;28;20233;-82
2022/09/02 05:31:41;;;;;;;10.07;9.77;;;12.30;99.90;;;;;;5089385;28;20238;-84
2022/09/02 05:34:09;;;;;;;10.00;9.70;;;12.30;99.90;;;;;;5070607;28;20305;-84
2022/09/02 05:36:37;;;;;;;10.20;9.90;;;12.40;99.90;;;;;;5069638;28;20313;-83
2022/09/02 05:39:08;;;;;;;10.20;9.90;;;12.40;99.90;;;;;;5071375;28;20238;-83
2022/09/02 05:41:36;;;;;;;10.33;10.03;;;12.50;99.90;;;;;;5072539;28;20227;-84
2022/09/02 05:44:08;;;;;;;10.37;10.07;;;12.60;99.90;;;;;;5072099;28;20338;-85
2022/09/02 05:46:46;;;;;;;10.00;9.70;;;12.60;99.90;;;;;;5072007;28;20227;-84
2022/09/02 05:52:02;;;;;;;9.90;9.60;;;12.90;99.90;;;;;;5071882;28;20230;-83
2022/09/02 05:54:39;;;;;;;10.03;9.73;;;13.00;99.90;;;;;;5062166;28;20237;-84
2022/09/02 05:57:10;;;;;;;10.10;9.80;;;13.10;99.90;;;;;;5062395;28;20233;-84
2022/09/02 05:59:41;;;;;;;10.10;9.80;;;13.20;99.90;;;;;;5061493;28;20230;-84
2022/09/02 06:02:17;;;;;;;10.50;10.20;;;13.30;99.90;;;;;;5061928;28;20241;-84
2022/09/02 06:07:33;;;;;;;10.40;10.10;;;13.50;99.90;;;;;;5068083;28;20230;-84
2022/09/02 06:10:04;;;;;;;10.37;10.07;;;13.60;99.90;;;;;;5067256;28;20257;-85
2022/09/02 06:12:32;;;;;;;10.40;10.10;;;13.70;99.90;;;;;;5067022;28;20234;-84
2022/09/02 06:15:01;;;;;;;10.27;9.97;;;13.70;99.90;;;;;;5066568;28;20788;-84
2022/09/02 06:17:32;;;;;;;10.20;9.90;;;13.70;99.90;;;;;;5067168;28;20211;-84
2022/09/02 06:20:07;;;;;;;10.23;9.93;;;13.80;99.90;;;;;;5066251;28;20277;-84
2022/09/02 06:22:38;;;;;;;10.53;10.23;;;13.90;99.90;;;;;;5066372;28;20244;-85
2022/09/02 06:25:09;;;;;;;10.17;9.87;;;13.90;99.90;;;;;;5066367;28;20230;-84
2022/09/02 06:27:38;;;;;;;10.30;10.00;;;14.00;99.90;;;;;;5065471;28;20319;-85
2022/09/02 06:30:08;;;;;;;10.87;10.57;;;14.10;99.90;;;;;;5065326;28;20230;-85
2022/09/02 06:32:38;;;;;;;10.30;10.00;;;14.20;99.90;;;;;;5064735;28;20238;-85
2022/09/02 06:35:09;;;;;;;10.83;10.53;;;14.20;99.90;;;;;;5065694;28;20285;-84
2022/09/02 06:37:37;;;;;;;10.57;10.27;;;14.30;99.90;;;;;;5065210;28;20227;-84
2022/09/02 06:40:06;;;;;;;11.00;10.70;;;14.50;99.90;;;;;;5064120;28;20239;-85
2022/09/02 06:42:37;;;;;;;10.70;10.40;;;14.60;99.90;;;;;;5063907;28;20309;-84
2022/09/02 06:45:07;;;;;;;10.70;10.40;;;14.70;99.90;;;;;;5063533;28;20229;-84
2022/09/02 06:47:52;;;;;;;11.10;10.80;;;14.80;99.90;;;;;;5065572;28;20235;-84
2022/09/02 06:50:23;;;;;;;11.32;10.93;;;14.90;99.90;;;;;;5064138;28;20267;-85
2022/09/02 06:53:00;;;;;;;11.00;10.70;;;15.10;99.90;;;;;;5063677;28;20334;-85
2022/09/02 06:55:30;;;;;;;11.13;10.82;;;15.20;99.90;;;;;;5064183;28;20237;-85
2022/09/02 06:57:58;;;;;;;11.05;10.75;;;15.30;99.90;;;;;;5064519;28;20245;-85
2022/09/02 07:00:38;;;;;;;10.88;10.57;;;15.50;99.90;;;;;;5065921;28;20228;-85
2022/09/02 07:06:10;;;;;;;10.80;10.50;;;15.70;99.90;;;;;;5064662;28;20219;-85
2022/09/02 07:08:41;;;;;;;10.73;10.43;;;15.90;99.90;;;;;;5066101;28;20230;-85
2022/09/02 07:11:20;;;;;;;10.70;10.40;;;15.90;99.90;;;;;;5068559;28;20238;-85
2022/09/02 07:13:48;;;;;;;10.70;10.40;;;16.10;99.90;;;;;;5067973;28;20238;-85
2022/09/02 07:16:25;;;;;;;11.15;10.85;;;16.10;99.90;;;;;;5067512;28;20296;-84
2022/09/02 07:18:56;;;;;;;11.48;11.10;;;16.10;99.90;;;;;;5067835;28;20231;-85
2022/09/02 07:21:27;;;;;;;11.20;10.90;;;16.30;99.90;;;;;;5068322;28;21051;-84
2022/09/02 07:23:55;;;;;;;11.02;10.73;;;16.20;99.90;;;;;;5067331;28;20257;-83
2022/09/02 07:26:23;;;;;;;11.02;10.73;;;16.30;99.90;;;;;;5066839;28;20377;-83
2022/09/02 07:28:53;;;;;;;11.05;10.75;;;16.40;99.90;;;;;;5067122;28;20230;-83
2022/09/02 07:31:26;;;;;;;11.20;10.90;;;16.50;99.90;;;;;;5067492;28;20262;-83
2022/09/02 07:33:57;;;;;;;11.35;11.02;;;16.60;99.90;;;;;;5067406;28;20235;-83
2022/09/02 07:36:30;;;;;;;11.60;11.20;;;16.70;99.90;;;;;;5076331;28;20230;-84
2022/09/02 07:38:59;;;;;;;11.57;11.18;;;16.90;99.90;;;;;;5076481;28;20222;-83
2022/09/02 07:41:31;;;;;;;11.70;11.30;;;17.00;99.90;;;;;;5067993;28;20313;-84
2022/09/02 07:44:08;;;;;;;11.75;11.35;;;17.20;99.90;;;;;;5067490;28;20287;-83
2022/09/02 07:46:39;;;;;;;11.20;10.90;;;17.30;99.90;;;;;;5067525;28;20242;-83
2022/09/02 07:49:16;;;;;;;11.60;11.20;;;17.40;99.90;;;;;;5066151;28;20250;-84
2022/09/02 07:51:52;;;;;;;11.68;11.27;;;17.50;99.90;;;;;;5066191;28;20256;-82
2022/09/02 07:54:31;;;;;;;11.40;11.05;;;17.70;99.90;;;;;;5064278;28;20235;-83
2022/09/02 07:59:47;;;;;;;11.50;11.10;;;17.90;99.90;;;;;;5066624;28;20215;-83
2022/09/02 08:02:27;;;;;;;11.50;11.20;;;18.00;99.90;;;;;;5073723;28;20226;-84
2022/09/02 08:05:05;;;;;;;11.10;10.80;;;18.10;99.90;;;;;;5070306;28;20317;-84
2022/09/02 08:07:51;;;;;;;11.10;10.80;;;18.30;99.90;;;;;;5068306;28;20250;-83
2022/09/02 08:10:24;;;;;;;11.02;10.73;;;18.40;99.90;;;;;;5067428;28;20230;-84
2022/09/02 08:13:28;;;;;;;11.35;11.05;;;18.50;99.90;;;;;;5066273;28;20254;-83
2022/09/02 08:16:05;;;;;;;11.70;11.30;;;18.60;99.90;;;;;;5063972;28;20265;-84
2022/09/02 08:21:38;;;;;;;11.00;10.70;;;18.90;99.90;;;;;;5065421;28;20211;-82
2022/09/02 08:24:15;;;;;;;11.07;10.77;;;19.00;99.90;;;;;;5065174;28;20243;-84
2022/09/02 08:26:45;;;;;;;10.90;10.60;;;19.00;99.90;;;;;;5065375;28;20257;-83
2022/09/02 08:29:15;;;;;;;10.60;10.30;;;19.20;99.90;;;;;;5065066;28;20249;-84
2022/09/02 08:31:45;;;;;;;10.90;10.60;;;19.30;99.90;;;;;;5064358;28;20222;-83
2022/09/02 08:34:13;;;;;;;10.93;10.63;;;19.50;99.90;;;;;;5065032;28;20241;-83
2022/09/02 08:36:46;;;;;;;11.50;11.20;;;19.80;99.90;;;;;;5064742;28;20303;-82
2022/09/02 08:39:24;;;;;;;11.30;11.00;;;19.90;99.90;;;;;;5064646;28;20281;-82
2022/09/02 08:42:05;;;;;;;11.00;10.70;;;20.10;99.90;;;;;;5064971;28;20195;-82
2022/09/02 08:44:40;;;;;;;11.40;11.10;;;20.10;99.90;;;;;;5064254;28;20261;-82
2022/09/02 08:47:21;;;;;;;11.32;11.02;;;20.20;99.90;;;;;;5064838;28;20230;-83
2022/09/02 08:49:56;;;;;;;11.45;11.15;;;20.40;99.90;;;;;;5064543;28;20226;-82
2022/09/02 08:52:54;;;;;;;;;;;;;;;;;;;;;
2022/09/02 08:55:34;;;;;;;10.85;10.55;;;20.60;99.90;;;;;;5065597;28;20229;-83
2022/09/02 08:58:11;;;;;;;10.65;10.35;;;20.70;99.90;;;;;;5073442;28;20333;-82
2022/09/02 09:04:12;;;;;;;11.57;11.27;;;20.80;99.90;;;;;;5066664;28;20242;-84
2022/09/02 09:10:39;;;;;;;10.98;10.68;;;21.20;99.90;;;;;;5065043;28;20233;-84
2022/09/02 09:13:40;;;;;;;11.05;10.75;;;21.60;99.90;;;;;;5063221;28;20230;-84
2022/09/02 09:16:28;;;;;;;10.90;10.60;;;22.10;99.90;;;;;;5065038;28;20296;-84
2022/09/02 09:19:07;;;;;;;10.98;10.68;;;22.20;99.90;;;;;;5069268;28;20230;-84
2022/09/02 09:21:45;;;;;;;10.93;10.63;;;22.40;99.90;;;;;;5072940;28;20237;-85
2022/09/02 09:24:31;;;;;;;11.10;10.80;;;22.70;99.90;;;;;;5066230;28;20231;-85
2022/09/02 09:27:18;;;;;;;11.15;10.85;;;22.80;99.90;;;;;;5066832;28;20266;-85
2022/09/02 09:29:57;;;;;;;10.60;10.30;;;22.90;99.90;;;;;;5066147;28;20231;-84
2022/09/02 09:32:34;;;;;;;10.98;10.68;;;23.00;99.90;;;;;;5064562;28;20246;-85
2022/09/02 09:35:15;;;;;;;10.32;10.02;;;23.00;99.90;;;;;;5063645;28;20227;-84
2022/09/02 09:38:00;;;;;;;10.30;10.00;;;22.70;99.90;;;;;;5064463;28;20225;-85
2022/09/02 09:40:31;;;;;;;10.40;10.10;;;22.30;99.90;;;;;;5064621;28;20235;-84
2022/09/02 09:43:17;;;;;;;10.40;10.10;;;22.00;99.90;;;;;;5065013;28;20334;-85
2022/09/02 09:45:57;;;;;;;10.55;10.25;;;22.10;99.90;;;;;;5064108;28;20219;-84
2022/09/02 09:48:37;;;;;;;10.68;10.38;;;22.30;99.90;;;;;;5065222;28;20229;-84
2022/09/02 09:51:29;;;;;;;10.90;10.60;;;22.60;99.90;;;;;;5064184;28;20240;-84
2022/09/02 09:54:25;;;;;;;10.82;10.52;;;22.80;99.90;;;;;;5063623;28;20230;-85
2022/09/02 09:56:56;;;;;;;10.80;10.50;;;22.70;99.90;;;;;;5064385;28;20312;-85
2022/09/02 09:59:54;;;;;;;10.63;10.32;;;22.50;99.90;;;;;;5063937;28;20956;-85
2022/09/02 10:02:29;;;;;;;10.80;10.50;;;22.50;99.90;;;;;;5062976;28;20732;-85
2022/09/02 10:05:23;;;;;;;11.10;10.80;;;22.60;99.90;;;;;;5062888;28;20276;-83
2022/09/02 10:08:02;;;;;;;11.10;10.80;;;22.60;99.90;;;;;;5077479;28;20270;-83
2022/09/02 10:10:34;;;;;;;11.18;10.88;;;22.70;99.90;;;;;;5071043;28;20313;-83
2022/09/02 10:13:26;;;;;;;11.32;11.02;;;22.80;99.90;;;;;;5060498;28;20296;-84
2022/09/02 10:16:57;;;;;;;11.20;10.90;;;23.00;99.90;;;;;;5061148;28;20241;-84
2022/09/02 10:23:15;;;;;;;10.95;10.65;;;23.00;99.90;;;;;;5061473;28;20234;-84
2022/09/02 10:26:04;;;;;;;10.98;10.68;;;23.30;99.90;;;;;;5060521;28;20269;-84
2022/09/02 10:29:25;;;;;;;10.85;10.55;;;23.40;99.90;;;;;;5060670;28;20226;-84
2022/09/02 10:32:12;;;;;;;11.10;10.80;;;23.50;99.90;;;;;;5061087;28;20288;-83
2022/09/02 10:35:02;;;;;;;11.02;10.73;;;23.60;99.90;;;;;;5060176;28;20230;-84
2022/09/02 10:37:48;;;;;;;11.10;10.80;;;23.50;99.90;;;;;;5060266;28;20246;-84
2022/09/02 10:40:18;;;;;;;10.90;10.60;;;23.80;99.90;;;;;;5061133;28;20257;-84
2022/09/02 10:43:04;;;;;;;10.80;10.50;;;23.80;99.90;;;;;;5062099;28;20246;-84
2022/09/02 10:45:49;;;;;;;10.60;10.30;;;23.50;99.90;;;;;;5064333;28;20219;-83
2022/09/02 10:48:37;;;;;;;10.68;10.38;;;23.30;99.90;;;;;;5065427;28;20269;-83
2022/09/02 10:51:35;;;;;;;11.10;10.80;;;23.10;99.90;;;;;;5065598;28;20242;-84
2022/09/02 10:54:29;;;;;;;10.90;10.60;;;23.00;99.90;;;;;;5064735;28;20227;-83
2022/09/02 10:57:10;;;;;;;10.98;10.68;;;23.20;99.90;;;;;;5064736;28;20312;-84
2022/09/02 11:02:36;;;;;;;11.00;10.70;;;23.40;99.90;;;;;;5070395;28;20231;-83
2022/09/02 11:08:18;;;;;;;10.88;10.57;;;23.60;99.90;;;;;;5080130;28;20209;-84
2022/09/02 11:11:03;;;;;;;10.77;10.48;;;24.00;99.90;;;;;;5067784;28;20233;-84
2022/09/02 11:14:00;;;;;;;10.60;10.30;;;24.60;99.90;;;;;;5069456;28;20285;-85
2022/09/02 11:16:37;;;;;;;10.77;10.48;;;24.90;99.90;;;;;;5066307;28;20227;-85
2022/09/02 11:19:18;;;;;;;11.00;10.70;;;25.10;99.90;;;;;;5066373;28;20223;-85
2022/09/02 11:22:20;;;;;;;11.10;10.80;;;25.20;99.90;;;;;;5064368;28;20235;-85
2022/09/02 17:26:55;;;;;;;11.07;10.77;;;23.80;99.90;;;;;;5001712;28;20229;-80
2022/09/02 17:29:25;;;;;;;11.10;10.80;;;23.50;99.90;;;;;;5003561;28;20233;-81
2022/09/02 17:31:55;;;;;;;10.80;10.50;;;23.30;99.90;;;;;;5003575;28;20237;-80
2022/09/02 17:34:24;;;;;;;11.10;10.80;;;23.10;99.90;;;;;;5003819;28;20432;-80
2022/09/02 17:36:53;;;;;;;11.23;10.93;;;22.90;99.90;;;;;;5003856;28;20568;-81
2022/09/02 17:39:21;;;;;;;10.80;10.50;;;22.70;99.90;;;;;;5003356;28;20325;-81
2022/09/02 17:41:54;;;;;;;10.48;10.18;;;22.30;99.90;;;;;;5003695;28;20247;-81
2022/09/02 17:44:33;;;;;;;10.52;10.23;;;22.10;99.90;;;;;;5002816;28;20264;-80
2022/09/02 17:47:03;;;;;;;10.77;10.48;;;22.00;99.90;;;;;;5003941;28;20243;-80
2022/09/02 17:49:31;;;;;;;10.80;10.50;;;21.80;99.90;;;;;;5004208;28;20232;-81
2022/09/02 17:51:58;;;;;;;10.50;10.20;;;21.70;99.90;;;;;;5004116;28;20297;-81
2022/09/02 17:54:28;;;;;;;10.60;10.30;;;21.60;99.90;;;;;;5003271;28;20236;-81
2022/09/02 17:57:25;;;;;;;10.48;10.18;;;21.50;99.90;;;;;;5016294;28;20238;-79
2022/09/02 18:00:14;;;;;;;10.60;10.30;;;21.30;99.90;;;;;;4996660;28;20264;-79
2022/09/02 18:03:25;;;;;;;10.50;10.20;;;21.10;99.90;;;;;;4998481;28;20341;-80
2022/09/02 18:06:04;;;;;;;10.77;10.48;;;21.00;99.90;;;;;;4984935;28;20249;-81
2022/09/02 18:08:41;;;;;;;10.70;10.40;;;20.90;99.90;;;;;;4989881;28;20240;-80
2022/09/02 18:11:09;;;;;;;10.63;10.32;;;20.80;99.90;;;;;;4994167;28;20239;-77
2022/09/02 18:13:48;;;;;;;10.60;10.30;;;20.70;99.90;;;;;;4993143;28;20301;-78
2022/09/02 18:16:30;;;;;;;10.68;10.38;;;20.70;99.90;;;;;;4992615;28;20451;-78
2022/09/02 18:19:15;;;;;;;10.43;10.13;;;20.70;99.90;;;;;;4984824;28;20226;-79
2022/09/02 18:22:04;;;;;;;9.93;9.63;;;20.70;99.90;;;;;;4989971;28;20237;-79
2022/09/02 18:24:48;;;;;;;10.23;9.93;;;20.60;99.90;;;;;;4990799;28;20300;-81
2022/09/02 18:27:26;;;;;;;10.20;9.90;;;20.60;99.90;;;;;;5000131;28;20232;-79
2022/09/02 18:30:07;;;;;;;10.00;9.70;;;20.50;99.90;;;;;;4991323;28;20240;-79
2022/09/02 18:33:10;;;;;;;10.05;9.75;;;20.50;99.90;;;;;;4986584;28;20222;-81
2022/09/02 18:35:50;;;;;;;10.13;9.82;;;20.40;99.90;;;;;;4989547;28;20225;-81
2022/09/02 18:38:43;;;;;;;10.32;10.02;;;20.30;99.90;;;;;;4996663;28;20221;-80
2022/09/02 18:41:34;;;;;;;10.27;9.98;;;20.20;99.90;;;;;;5006702;28;20257;-80
2022/09/02 18:44:19;;;;;;;10.00;9.70;;;20.10;99.90;;;;;;5010130;28;20329;-81
2022/09/02 18:47:00;;;;;;;9.95;9.65;;;20.10;99.90;;;;;;5005750;28;20243;-80
2022/09/02 18:52:39;;;;;;;10.10;9.80;;;19.90;99.90;;;;;;5000979;28;20235;-80
2022/09/02 18:55:13;;;;;;;10.02;9.73;;;19.70;99.90;;;;;;4990013;28;20270;-80
2022/09/02 18:57:49;;;;;;;10.10;9.80;;;19.70;99.90;;;;;;4999035;28;20975;-80
2022/09/02 19:00:21;;;;;;;10.10;9.80;;;19.60;99.90;;;;;;5005518;28;20311;-80
2022/09/02 19:03:09;;;;;;;10.27;9.98;;;19.60;99.90;;;;;;5005352;28;20237;-81
2022/09/02 19:05:42;;;;;;;10.43;10.13;;;19.50;99.90;;;;;;5003360;28;20240;-80
2022/09/02 19:08:28;;;;;;;10.32;10.02;;;19.50;99.90;;;;;;5007856;28;20252;-80
2022/09/02 19:11:09;;;;;;;10.82;10.52;;;19.50;99.90;;;;;;5008704;28;20240;-80
2022/09/02 19:13:54;;;;;;;10.10;9.80;;;19.40;99.90;;;;;;5000703;28;20236;-80
2022/09/02 19:16:24;;;;;;;10.43;10.13;;;19.30;99.90;;;;;;5006122;28;20225;-78
2022/09/02 19:18:54;;;;;;;10.10;9.80;;;19.20;99.90;;;;;;4991483;28;20233;-79
2022/09/02 19:21:40;;;;;;;10.00;9.70;;;19.20;99.90;;;;;;4988070;28;20301;-81
2022/09/02 19:24:14;;;;;;;9.70;9.40;;;19.10;99.90;;;;;;4987227;28;20237;-79
2022/09/02 19:26:45;;;;;;;9.98;9.68;;;19.10;99.90;;;;;;4991672;28;20225;-80
2022/09/02 19:29:16;;;;;;;9.45;9.15;;;19.00;99.90;;;;;;5000678;28;20241;-80
2022/09/02 19:31:45;;;;;;;10.00;9.70;;;18.90;99.90;;;;;;5006033;28;20233;-79
2022/09/02 19:34:16;;;;;;;10.27;9.98;;;18.90;99.90;;;;;;4987528;28;20244;-80
2022/09/02 19:36:56;;;;;;;10.32;10.02;;;18.80;99.90;;;;;;4985098;28;20325;-80
2022/09/02 19:39:25;;;;;;;9.88;9.57;;;18.70;99.90;;;;;;4985865;28;20249;-79
2022/09/02 19:41:53;;;;;;;10.07;9.77;;;18.70;99.90;;;;;;4993175;28;20240;-79
2022/09/02 19:44:22;;;;;;;9.90;9.60;;;18.60;99.90;;;;;;4994593;28;20247;-78
2022/09/02 19:46:51;;;;;;;10.10;9.80;;;18.60;99.90;;;;;;5001677;28;20304;-80
2022/09/02 19:49:22;;;;;;;10.38;10.07;;;18.60;99.90;;;;;;5003613;28;20267;-78
2022/09/02 19:51:56;;;;;;;10.27;9.98;;;18.60;99.90;;;;;;5004302;28;20297;-79
2022/09/02 19:54:25;;;;;;;10.07;9.77;;;18.50;99.90;;;;;;5003587;28;20271;-77
2022/09/02 19:56:52;;;;;;;10.20;9.90;;;18.50;99.90;;;;;;5000579;28;20232;-80
2022/09/02 19:59:27;;;;;;;10.00;9.70;;;18.40;99.90;;;;;;5002599;28;20248;-79